createdAt,value
2018-12-14T00:02:13.342Z,2.40
2018-12-14T00:04:42.169Z,2.40
2018-12-14T00:07:10.594Z,2.30
2018-12-14T00:09:39.050Z,2.30
2018-12-14T00:12:07.737Z,2.30
2018-12-14T00:14:36.230Z,2.30
2018-12-14T00:17:05.465Z,2.30
2018-12-14T00:19:34.333Z,2.40
2018-12-14T00:22:03.142Z,2.40
2018-12-14T00:24:31.865Z,2.40
2018-12-14T00:27:01.046Z,2.30
2018-12-14T00:29:29.445Z,2.40
2018-12-14T00:31:58.241Z,2.40
2018-12-14T00:34:26.636Z,2.40
2018-12-14T00:36:55.089Z,2.40
2018-12-14T00:39:23.530Z,2.40
2018-12-14T00:41:52.283Z,2.40
2018-12-14T00:44:21.145Z,2.40
2018-12-14T00:46:50.005Z,2.40
2018-12-14T00:49:18.405Z,2.40
2018-12-14T00:51:48.810Z,2.40
2018-12-14T00:54:17.269Z,2.40
2018-12-14T00:56:46.165Z,2.30
2018-12-14T00:59:15.283Z,2.30
2018-12-14T01:01:44.105Z,2.30
2018-12-14T01:04:12.856Z,2.30
2018-12-14T01:06:41.373Z,2.30
2018-12-14T01:09:09.821Z,2.30
2018-12-14T01:11:38.288Z,2.30
2018-12-14T01:14:07.409Z,2.30
2018-12-14T01:16:36.340Z,2.30
2018-12-14T01:19:06.017Z,2.30
2018-12-14T01:21:34.422Z,2.30
2018-12-14T01:24:03.344Z,2.30
2018-12-14T01:26:32.105Z,2.30
2018-12-14T01:29:01.394Z,2.30
2018-12-14T01:31:30.098Z,2.30
2018-12-14T01:33:59.061Z,2.20
2018-12-14T01:36:27.853Z,2.20
2018-12-14T01:38:56.787Z,2.20
2018-12-14T01:41:25.530Z,2.30
2018-12-14T01:43:54.355Z,2.30
2018-12-14T01:46:23.046Z,2.20
2018-12-14T01:48:51.838Z,2.20
2018-12-14T01:51:21.366Z,2.20
2018-12-14T01:53:50.019Z,2.20
2018-12-14T01:56:19.157Z,2.20
2018-12-14T01:58:48.290Z,2.20
2018-12-14T02:01:17.050Z,2.20
2018-12-14T02:03:45.877Z,2.20
2018-12-14T02:06:14.765Z,2.10
2018-12-14T02:08:43.881Z,2.10
2018-12-14T02:11:12.749Z,2.10
2018-12-14T02:13:41.517Z,2.10
2018-12-14T02:16:10.337Z,2.10
2018-12-14T02:18:39.285Z,2.10
2018-12-14T02:21:08.109Z,2.10
2018-12-14T02:23:37.211Z,2.10
2018-12-14T02:26:05.625Z,2.10
2018-12-14T02:28:34.366Z,2.10
2018-12-14T02:31:03.407Z,2.10
2018-12-14T02:33:33.070Z,2.10
2018-12-14T02:36:01.825Z,2.10
2018-12-14T02:38:30.954Z,2.20
2018-12-14T02:40:59.814Z,2.00
2018-12-14T02:43:28.334Z,2.30
2018-12-14T02:45:56.794Z,2.30
2018-12-14T02:48:25.903Z,2.30
2018-12-14T02:50:54.332Z,2.30
2018-12-14T02:53:22.769Z,2.30
2018-12-14T02:55:52.069Z,2.40
2018-12-14T02:58:20.842Z,2.40
2018-12-14T03:00:49.609Z,2.40
2018-12-14T03:03:18.378Z,2.40
2018-12-14T03:05:47.198Z,2.40
2018-12-14T03:08:15.988Z,2.40
2018-12-14T03:10:44.883Z,2.40
2018-12-14T03:13:13.622Z,2.40
2018-12-14T03:15:42.291Z,2.40
2018-12-14T03:18:10.998Z,2.40
2018-12-14T03:20:39.825Z,2.40
2018-12-14T03:23:08.621Z,2.40
2018-12-14T03:25:37.564Z,2.40
2018-12-14T03:28:05.997Z,2.40
2018-12-14T03:30:34.454Z,2.40
2018-12-14T03:33:03.367Z,2.40
2018-12-14T03:35:32.134Z,2.50
2018-12-14T03:38:01.152Z,2.50
2018-12-14T03:40:30.103Z,2.50
2018-12-14T03:42:58.921Z,2.50
2018-12-14T03:45:28.123Z,2.50
2018-12-14T03:47:57.009Z,2.40
2018-12-14T03:50:25.937Z,2.40
2018-12-14T03:52:54.681Z,2.40
2018-12-14T03:55:23.374Z,2.40
2018-12-14T03:57:53.104Z,2.40
2018-12-14T04:00:22.258Z,2.30
2018-12-14T04:02:51.687Z,2.30
2018-12-14T04:05:20.674Z,2.30
2018-12-14T04:07:49.386Z,2.30
2018-12-14T04:10:18.039Z,2.30
2018-12-14T04:12:46.813Z,2.20
2018-12-14T04:15:15.710Z,2.20
2018-12-14T04:17:44.402Z,2.20
2018-12-14T04:20:13.148Z,2.20
2018-12-14T04:22:41.567Z,2.20
2018-12-14T04:25:10.222Z,2.20
2018-12-14T04:27:39.345Z,2.20
2018-12-14T04:30:07.874Z,2.20
2018-12-14T04:32:36.784Z,2.20
2018-12-14T04:35:06.676Z,2.30
2018-12-14T04:37:35.904Z,2.20
2018-12-14T04:40:05.686Z,2.30
2018-12-14T04:42:34.406Z,2.20
2018-12-14T04:45:02.934Z,2.30
2018-12-14T04:47:31.385Z,2.30
2018-12-14T04:49:59.912Z,2.30
2018-12-14T04:52:28.516Z,2.30
2018-12-14T04:54:56.966Z,2.30
2018-12-14T04:57:25.838Z,2.30
2018-12-14T04:59:54.248Z,2.30
2018-12-14T05:02:22.710Z,2.30
2018-12-14T05:04:51.426Z,2.40
2018-12-14T05:07:20.102Z,2.40
2018-12-14T05:09:48.937Z,2.40
2018-12-14T05:12:17.754Z,2.30
2018-12-14T05:14:46.874Z,2.40
2018-12-14T05:17:16.576Z,2.40
2018-12-14T05:19:45.365Z,2.40
2018-12-14T17:42:28.738Z,2.50
2018-12-14T17:45:03.201Z,2.40
2018-12-14T17:47:34.064Z,2.40
2018-12-14T17:50:03.392Z,2.40
2018-12-14T17:52:36.710Z,2.40
2018-12-14T17:55:06.326Z,2.40
2018-12-14T17:57:34.891Z,2.40
2018-12-14T18:00:05.710Z,2.40
2018-12-14T18:02:38.320Z,2.40
2018-12-14T18:05:07.334Z,2.50
2018-12-14T18:07:36.955Z,2.40
2018-12-14T18:10:06.059Z,2.40
2018-12-14T18:12:38.999Z,2.40
2018-12-14T18:15:07.559Z,2.40
2018-12-14T18:17:37.630Z,2.50
2018-12-14T18:20:07.598Z,2.50
2018-12-14T18:22:37.518Z,2.50
2018-12-14T18:25:07.935Z,2.50
2018-12-14T18:27:36.934Z,2.40
2018-12-14T18:30:07.189Z,2.40
2018-12-14T18:32:36.730Z,2.40
2018-12-14T18:35:07.220Z,2.40
2018-12-14T18:37:41.475Z,2.40
2018-12-14T18:40:14.214Z,2.40
2018-12-14T18:42:42.873Z,2.40
2018-12-14T18:45:11.530Z,2.40
2018-12-14T18:47:41.853Z,2.30
2018-12-14T18:50:11.768Z,2.30
2018-12-14T18:52:44.022Z,2.30
2018-12-14T18:55:16.719Z,2.30
2018-12-14T18:57:45.624Z,2.30
2018-12-14T19:00:19.466Z,2.20
2018-12-14T19:02:49.363Z,2.20
2018-12-14T19:05:22.446Z,2.20
2018-12-14T19:07:52.056Z,2.20
2018-12-14T19:10:22.072Z,2.20
2018-12-14T19:12:51.534Z,2.20
2018-12-14T19:15:24.399Z,2.20
2018-12-14T19:17:54.055Z,2.20
2018-12-14T19:20:23.930Z,2.20
2018-12-14T19:22:53.319Z,2.20
2018-12-14T19:25:30.604Z,2.20
2018-12-14T19:28:02.931Z,2.20
2018-12-14T19:30:32.470Z,2.20
2018-12-14T19:33:02.785Z,2.20
2018-12-14T19:35:31.408Z,2.20
2018-12-14T19:38:01.791Z,2.20
2018-12-14T19:40:30.465Z,1.80
2018-12-14T19:42:59.102Z,2.20
2018-12-14T19:45:28.843Z,2.20
2018-12-14T19:48:05.643Z,2.20
2018-12-14T19:50:37.212Z,2.20
2018-12-14T19:53:09.876Z,2.20
2018-12-14T19:55:44.344Z,2.20
2018-12-14T19:58:16.241Z,2.20
2018-12-14T20:00:49.220Z,2.20
2018-12-14T20:03:18.180Z,2.20
2018-12-14T20:05:46.819Z,2.20
2018-12-14T20:08:15.420Z,2.10
2018-12-14T20:10:44.099Z,2.10
2018-12-14T20:13:13.484Z,2.20
2018-12-14T20:15:42.456Z,2.20
2018-12-14T20:18:13.513Z,2.10
2018-12-14T20:20:43.178Z,2.10
2018-12-14T20:23:12.725Z,2.20
2018-12-14T20:25:41.602Z,2.10
2018-12-14T20:28:10.231Z,2.10
2018-12-14T20:30:39.038Z,2.10
2018-12-14T20:33:08.197Z,2.10
2018-12-14T20:35:37.544Z,2.10
2018-12-14T20:38:07.412Z,2.10
2018-12-14T20:40:36.581Z,2.10
2018-12-14T20:43:10.194Z,2.10
2018-12-14T20:45:39.288Z,2.10
2018-12-14T20:48:09.323Z,2.50
2018-12-14T20:50:43.833Z,2.10
2018-12-14T20:53:17.701Z,2.20
2018-12-14T20:55:48.919Z,2.20
2018-12-14T20:58:19.019Z,2.10
2018-12-14T21:00:48.589Z,2.10
2018-12-14T21:03:17.856Z,2.10
2018-12-14T21:05:47.305Z,2.10
2018-12-14T21:08:17.283Z,2.10
2018-12-14T21:10:52.366Z,2.10
2018-12-14T21:13:25.093Z,2.10
2018-12-14T21:15:55.393Z,2.10
2018-12-14T21:18:29.679Z,2.10
2018-12-14T21:21:00.689Z,2.10
2018-12-14T21:23:31.074Z,2.10
2018-12-14T21:25:59.872Z,2.00
2018-12-14T21:28:28.560Z,2.10
2018-12-14T21:30:57.226Z,2.10
2018-12-14T21:33:27.446Z,2.10
2018-12-14T21:35:56.196Z,2.10
2018-12-14T21:38:24.896Z,2.10
2018-12-14T21:40:53.642Z,2.10
2018-12-14T21:43:23.584Z,2.10
2018-12-14T21:45:58.325Z,2.00
2018-12-14T21:48:32.716Z,2.00
2018-12-14T21:51:02.151Z,2.00
2018-12-14T21:53:31.144Z,2.00
2018-12-14T21:56:00.610Z,1.90
2018-12-14T21:58:29.917Z,1.90
2018-12-14T22:00:59.670Z,1.90
2018-12-14T22:03:29.597Z,1.90
2018-12-14T22:05:59.233Z,1.80
2018-12-14T22:08:28.574Z,1.80
2018-12-14T22:10:57.479Z,1.80
2018-12-14T22:13:26.340Z,1.80
2018-12-14T22:15:56.160Z,1.80
2018-12-14T22:18:26.828Z,1.90
2018-12-14T22:20:57.302Z,1.80
2018-12-14T22:23:26.749Z,1.80
2018-12-14T22:25:57.061Z,1.80
2018-12-14T22:28:25.896Z,1.80
2018-12-14T22:30:55.088Z,1.90
2018-12-14T22:33:30.106Z,1.80
2018-12-14T22:36:06.837Z,1.80
2018-12-14T22:38:40.798Z,1.80
2018-12-14T22:41:12.934Z,1.80
2018-12-14T22:43:41.813Z,1.80
2018-12-14T22:46:10.701Z,1.70
2018-12-14T22:48:40.110Z,1.70
2018-12-14T22:51:09.474Z,1.80
2018-12-14T22:53:39.595Z,1.70
2018-12-14T22:56:09.176Z,1.80
2018-12-14T22:58:38.145Z,1.70
2018-12-14T23:01:07.667Z,1.70
2018-12-14T23:03:37.434Z,1.70
2018-12-14T23:06:07.835Z,1.60
2018-12-14T23:08:39.328Z,1.60
2018-12-14T23:11:07.961Z,1.70
2018-12-14T23:13:37.366Z,1.70
2018-12-14T23:16:07.019Z,1.70
2018-12-14T23:18:36.900Z,1.80
2018-12-14T23:21:06.058Z,1.70
2018-12-14T23:23:35.650Z,1.70
2018-12-14T23:26:04.884Z,1.60
2018-12-14T23:28:36.329Z,1.60
2018-12-14T23:31:07.352Z,1.60
2018-12-14T23:33:36.194Z,1.60
2018-12-14T23:36:05.920Z,1.70
2018-12-14T23:38:34.772Z,1.60
2018-12-14T23:41:05.340Z,1.60
2018-12-14T23:43:35.591Z,1.60
2018-12-14T23:46:06.737Z,1.60
2018-12-14T23:48:38.232Z,1.60
2018-12-14T23:51:07.189Z,1.60
2018-12-14T23:53:36.607Z,1.60
2018-12-14T23:56:06.770Z,1.60
2018-12-14T23:58:35.696Z,1.70
